Time;durP1;ratioP1;P1;durP2;ratioP2;P2;SDS_P1;SDS_P2;PMS_P1;PMS_P2;Temp;Humidity;BMP_temperature;BMP_pressure;BME280_temperature;BME280_humidity;BME280_pressure;Samples;Min_cycle;Max_cycle;Signal;HPM_P1;HPM_P2
2023/06/02 00:02:23;;;;;;;8.10;3.03;;;11.20;99.90;;;;;;5053402;28;20128;-34
2023/06/02 00:04:52;;;;;;;10.35;3.30;;;11.20;99.90;;;;;;5053257;28;20596;-33
2023/06/02 00:07:18;;;;;;;10.00;3.30;;;11.20;99.90;;;;;;5053002;28;20090;-37
2023/06/02 00:09:44;;;;;;;9.05;3.05;;;11.10;99.90;;;;;;5053163;28;20544;-34
2023/06/02 00:12:10;;;;;;;5.93;2.92;;;11.10;99.90;;;;;;5053238;28;20076;-35
2023/06/02 00:14:44;;;;;;;8.95;3.10;;;11.10;99.90;;;;;;5052992;28;20091;-33
2023/06/02 00:17:12;;;;;;;13.48;3.22;;;11.10;99.90;;;;;;5053156;28;20044;-34
2023/06/02 00:19:42;;;;;;;8.27;3.08;;;11.10;99.90;;;;;;5053143;28;20386;-34
2023/06/02 00:22:16;;;;;;;9.35;3.30;;;11.10;99.90;;;;;;5052696;28;20033;-34
2023/06/02 00:24:42;;;;;;;9.60;2.95;;;11.10;99.90;;;;;;5052763;28;20044;-34
2023/06/02 00:27:08;;;;;;;11.55;3.00;;;11.10;99.90;;;;;;5052443;28;20052;-34
2023/06/02 00:29:34;;;;;;;7.32;3.25;;;11.10;99.90;;;;;;5052912;28;20457;-34
2023/06/02 00:32:00;;;;;;;8.52;3.03;;;11.10;99.90;;;;;;5052500;28;20398;-34
2023/06/02 00:34:26;;;;;;;7.18;2.70;;;11.10;99.90;;;;;;5052508;28;20072;-33
2023/06/02 00:36:51;;;;;;;10.00;3.40;;;11.10;99.90;;;;;;5052508;28;20037;-33
2023/06/02 00:39:17;;;;;;;9.27;3.38;;;11.00;99.90;;;;;;5034329;28;20115;-34
2023/06/02 00:41:44;;;;;;;10.70;3.45;;;11.10;99.90;;;;;;5032786;28;20554;-34
2023/06/02 00:44:10;;;;;;;9.27;2.97;;;11.10;99.90;;;;;;5035475;28;20383;-32
2023/06/02 00:46:36;;;;;;;11.32;3.15;;;11.10;99.90;;;;;;5052037;28;20071;-33
2023/06/02 00:49:03;;;;;;;8.20;2.83;;;11.00;99.90;;;;;;5052152;28;20036;-33
2023/06/02 00:51:29;;;;;;;16.20;3.70;;;11.10;99.90;;;;;;5052515;28;20029;-34
2023/06/02 00:53:55;;;;;;;13.23;3.17;;;11.00;99.90;;;;;;5052431;28;20053;-34
2023/06/02 00:56:23;;;;;;;13.30;3.50;;;11.00;99.90;;;;;;5052345;28;20497;-34
2023/06/02 00:58:49;;;;;;;7.18;2.83;;;11.00;99.90;;;;;;5052320;28;20040;-33
2023/06/02 01:01:18;;;;;;;8.57;3.13;;;11.00;99.90;;;;;;5042267;28;20075;-37
2023/06/02 01:03:46;;;;;;;9.98;2.92;;;11.00;99.90;;;;;;5042724;28;20124;-34
2023/06/02 01:06:15;;;;;;;10.80;3.90;;;11.00;99.90;;;;;;5016229;28;20046;-33
2023/06/02 01:08:43;;;;;;;11.20;3.22;;;11.00;99.90;;;;;;5031872;28;20107;-35
2023/06/02 01:11:09;;;;;;;10.50;2.78;;;11.00;99.90;;;;;;5031844;28;20037;-33
2023/06/02 01:13:36;;;;;;;11.80;3.40;;;11.00;99.90;;;;;;5050768;28;20073;-35
2023/06/02 01:16:02;;;;;;;13.57;3.47;;;10.90;99.90;;;;;;5052125;28;20095;-34
2023/06/02 01:18:29;;;;;;;13.88;2.80;;;10.90;99.90;;;;;;5051564;28;20083;-34
2023/06/02 01:21:00;;;;;;;10.55;3.08;;;10.90;99.90;;;;;;5017456;28;20046;-33
2023/06/02 01:23:36;;;;;;;15.43;3.10;;;10.90;99.90;;;;;;5051678;28;20037;-34
2023/06/02 01:26:05;;;;;;;12.77;2.47;;;10.90;99.90;;;;;;5037638;28;20045;-34
2023/06/02 01:28:31;;;;;;;11.20;3.20;;;10.90;99.90;;;;;;5051420;28;20067;-33
2023/06/02 01:31:08;;;;;;;8.55;3.00;;;10.90;99.90;;;;;;5051724;28;20040;-37
2023/06/02 01:33:54;;;;;;;10.52;2.92;;;10.90;99.90;;;;;;5038491;28;20033;-34
2023/06/02 01:36:22;;;;;;;11.15;3.20;;;10.80;99.90;;;;;;5039176;28;20049;-34
2023/06/02 01:38:49;;;;;;;7.22;2.47;;;10.80;99.90;;;;;;5034806;28;20045;-34
2023/06/02 01:41:16;;;;;;;8.98;3.10;;;10.80;99.90;;;;;;5051167;28;20043;-34
2023/06/02 01:43:42;;;;;;;8.95;3.08;;;10.80;99.90;;;;;;5051460;28;20385;-33
2023/06/02 01:46:10;;;;;;;10.70;2.88;;;10.80;99.90;;;;;;5051324;28;20157;-35
2023/06/02 01:48:35;;;;;;;12.20;3.20;;;10.80;99.90;;;;;;5051018;28;20047;-32
2023/06/02 01:51:02;;;;;;;14.70;3.10;;;10.80;99.90;;;;;;5051388;28;20033;-37
2023/06/02 01:53:27;;;;;;;12.75;3.42;;;10.70;99.90;;;;;;5051386;28;20041;-33
2023/06/02 01:55:54;;;;;;;13.50;4.13;;;10.80;99.90;;;;;;5036055;28;20056;-35
2023/06/02 01:58:21;;;;;;;10.07;3.65;;;10.80;99.90;;;;;;5030906;28;20124;-34
2023/06/02 02:00:46;;;;;;;12.45;3.30;;;10.70;99.90;;;;;;5046025;28;20040;-35
2023/06/02 02:03:13;;;;;;;11.38;3.55;;;10.80;99.90;;;;;;5032891;28;20041;-35
2023/06/02 02:05:39;;;;;;;9.45;3.17;;;10.70;99.90;;;;;;5031058;28;20112;-33
2023/06/02 02:08:05;;;;;;;8.95;2.88;;;10.70;99.90;;;;;;5031288;28;20038;-35
2023/06/02 02:10:31;;;;;;;8.05;2.58;;;10.70;99.90;;;;;;5033741;28;20424;-33
2023/06/02 02:12:56;;;;;;;9.63;3.42;;;10.70;99.90;;;;;;5050908;28;20094;-34
2023/06/02 02:15:23;;;;;;;19.73;3.47;;;10.70;99.90;;;;;;5034192;28;20044;-33
2023/06/02 02:17:49;;;;;;;11.60;2.80;;;10.60;99.90;;;;;;5050492;28;20029;-33
2023/06/02 02:20:17;;;;;;;13.85;3.72;;;10.60;99.90;;;;;;5041574;28;20486;-35
2023/06/02 02:22:43;;;;;;;13.18;3.15;;;10.70;99.90;;;;;;5046849;28;20044;-34
2023/06/02 02:25:09;;;;;;;13.30;3.28;;;10.60;99.90;;;;;;5050333;28;20095;-33
2023/06/02 02:27:36;;;;;;;11.27;2.83;;;10.60;99.90;;;;;;5050294;28;20045;-35
2023/06/02 02:30:03;;;;;;;13.10;3.47;;;10.60;99.90;;;;;;5040970;28;20057;-36
2023/06/02 02:32:30;;;;;;;13.07;3.13;;;10.60;99.90;;;;;;5030683;28;20041;-33
2023/06/02 02:34:56;;;;;;;9.52;2.72;;;10.60;99.90;;;;;;5019848;28;20033;-34
2023/06/02 02:37:22;;;;;;;8.05;3.10;;;10.60;99.90;;;;;;5050625;28;20044;-36
2023/06/02 02:39:48;;;;;;;13.60;4.03;;;10.60;99.90;;;;;;5050034;28;20490;-34
2023/06/02 02:42:14;;;;;;;9.68;2.80;;;10.60;99.90;;;;;;5050483;28;20044;-34
2023/06/02 02:44:39;;;;;;;14.30;3.00;;;10.60;99.90;;;;;;5035848;28;20570;-33
2023/06/02 02:47:06;;;;;;;15.98;3.20;;;10.60;99.90;;;;;;5050291;28;20099;-35
2023/06/02 02:49:32;;;;;;;12.10;3.08;;;10.60;99.90;;;;;;5033233;28;20041;-33
2023/06/02 02:51:58;;;;;;;9.82;3.13;;;10.60;99.90;;;;;;5050301;28;20036;-34
2023/06/02 02:54:25;;;;;;;8.55;2.58;;;10.60;99.90;;;;;;5050330;28;20067;-35
2023/06/02 02:56:52;;;;;;;13.63;2.80;;;10.60;99.90;;;;;;5050071;28;20051;-35
2023/06/02 02:59:17;;;;;;;9.70;2.95;;;10.60;99.90;;;;;;5050327;28;20048;-35
2023/06/02 03:01:46;;;;;;;10.93;3.28;;;10.60;99.90;;;;;;5050108;28;20101;-33
2023/06/02 03:04:18;;;;;;;13.02;3.42;;;10.60;99.90;;;;;;5049809;28;20036;-34
2023/06/02 03:06:45;;;;;;;10.93;3.13;;;10.70;99.90;;;;;;5049867;28;20045;-32
2023/06/02 03:09:12;;;;;;;9.85;2.97;;;10.70;99.90;;;;;;5050088;28;20104;-34
2023/06/02 03:11:37;;;;;;;11.63;2.92;;;10.60;99.90;;;;;;5050134;28;20060;-34
2023/06/02 03:14:03;;;;;;;11.90;3.30;;;10.70;99.90;;;;;;5050992;28;20335;-34
2023/06/02 03:16:29;;;;;;;10.75;2.95;;;10.60;99.90;;;;;;5038035;28;20037;-35
2023/06/02 03:18:56;;;;;;;14.10;3.67;;;10.70;99.90;;;;;;5047916;28;20478;-36
2023/06/02 03:21:22;;;;;;;10.88;3.05;;;10.70;99.90;;;;;;5050144;28;20485;-32
2023/06/02 03:23:51;;;;;;;15.57;3.20;;;10.70;99.90;;;;;;5033000;28;20064;-33
2023/06/02 03:26:17;;;;;;;14.38;3.58;;;10.70;99.90;;;;;;5049722;28;20132;-33
2023/06/02 03:28:43;;;;;;;12.23;2.80;;;10.80;99.90;;;;;;5049829;28;20490;-32
2023/06/02 03:31:09;;;;;;;11.00;2.92;;;10.70;99.90;;;;;;5054062;28;20033;-36
2023/06/02 03:33:35;;;;;;;11.52;2.90;;;10.70;99.90;;;;;;5053735;28;20444;-33
2023/06/02 03:36:01;;;;;;;9.25;3.08;;;10.70;99.90;;;;;;5053921;28;20041;-35
2023/06/02 03:38:27;;;;;;;9.27;2.92;;;10.80;99.90;;;;;;5053555;28;20124;-34
2023/06/02 03:40:53;;;;;;;12.65;3.20;;;10.80;99.90;;;;;;5053477;28;20080;-34
2023/06/02 03:43:18;;;;;;;9.02;2.63;;;10.80;99.90;;;;;;5053874;28;20095;-33
2023/06/02 03:45:45;;;;;;;11.77;3.30;;;10.80;99.90;;;;;;5053500;28;20455;-34
2023/06/02 03:48:11;;;;;;;7.82;2.70;;;10.80;99.90;;;;;;5053761;28;20048;-35
2023/06/02 03:50:38;;;;;;;9.55;3.45;;;10.80;99.90;;;;;;5053208;28;20041;-34
2023/06/02 03:53:05;;;;;;;11.05;2.88;;;10.80;99.90;;;;;;5053503;28;20098;-34
2023/06/02 03:55:31;;;;;;;10.25;3.03;;;10.80;99.90;;;;;;5041807;28;20415;-33
2023/06/02 03:57:57;;;;;;;12.05;3.03;;;10.80;99.90;;;;;;5033531;28;20045;-34
2023/06/02 04:00:23;;;;;;;13.07;3.20;;;10.90;99.90;;;;;;5044283;28;20111;-34
2023/06/02 04:02:49;;;;;;;12.98;3.10;;;10.80;99.90;;;;;;5053272;28;20186;-34
2023/06/02 04:05:15;;;;;;;10.18;2.88;;;10.80;99.90;;;;;;5053616;28;20120;-33
2023/06/02 04:07:41;;;;;;;8.98;2.67;;;10.90;99.90;;;;;;5053043;28;20501;-36
2023/06/02 04:10:07;;;;;;;10.95;2.60;;;10.90;99.90;;;;;;5037713;28;20042;-35
2023/06/02 04:12:33;;;;;;;10.20;2.92;;;10.90;99.90;;;;;;5040773;28;20087;-35
2023/06/02 04:15:00;;;;;;;15.40;3.20;;;11.00;99.90;;;;;;5053036;28;20044;-33
2023/06/02 04:17:26;;;;;;;12.13;2.95;;;11.00;99.90;;;;;;5052889;28;20072;-32
2023/06/02 04:19:55;;;;;;;11.68;3.05;;;11.00;99.90;;;;;;5036173;28;20134;-33
2023/06/02 04:22:21;;;;;;;8.90;3.00;;;11.00;99.90;;;;;;5034817;28;20048;-37
2023/06/02 04:24:47;;;;;;;11.13;2.90;;;11.00;99.90;;;;;;5032745;28;20034;-33
2023/06/02 04:27:16;;;;;;;10.85;3.22;;;11.00;99.90;;;;;;5048789;28;20041;-36
2023/06/02 04:29:42;;;;;;;11.00;2.65;;;11.00;99.90;;;;;;5052567;28;20353;-34
2023/06/02 04:32:07;;;;;;;10.18;2.50;;;11.00;99.90;;;;;;5052806;28;20124;-35
2023/06/02 04:34:35;;;;;;;15.30;3.22;;;11.10;99.90;;;;;;5052663;28;20397;-35
2023/06/02 04:37:02;;;;;;;10.70;3.25;;;11.10;99.90;;;;;;5052850;28;20060;-34
2023/06/02 04:39:28;;;;;;;13.38;3.28;;;11.10;99.90;;;;;;5052871;28;20041;-36
2023/06/02 04:41:56;;;;;;;9.15;2.65;;;11.20;99.90;;;;;;5051491;28;20414;-34
2023/06/02 04:44:23;;;;;;;11.85;3.28;;;11.10;99.90;;;;;;5052311;28;20044;-34
2023/06/02 04:46:49;;;;;;;9.10;2.70;;;11.10;99.90;;;;;;5037691;28;20073;-35
2023/06/02 04:49:15;;;;;;;11.90;2.70;;;11.20;99.90;;;;;;5032674;28;20461;-34
2023/06/02 04:51:41;;;;;;;10.63;3.28;;;11.20;99.90;;;;;;5032350;28;20084;-34
2023/06/02 04:54:07;;;;;;;12.27;2.60;;;11.20;99.90;;;;;;5046642;28;20064;-35
2023/06/02 04:56:35;;;;;;;11.05;2.95;;;11.30;99.90;;;;;;5052439;28;20116;-36
2023/06/02 04:59:01;;;;;;;14.68;3.17;;;11.30;99.90;;;;;;5035689;28;20444;-35
2023/06/02 05:01:28;;;;;;;16.13;3.17;;;11.30;99.90;;;;;;5052479;28;20041;-34
2023/06/02 05:03:54;;;;;;;12.25;3.33;;;11.40;99.90;;;;;;5052344;28;20044;-34
2023/06/02 05:06:20;;;;;;;14.68;2.97;;;11.50;99.90;;;;;;5052260;28;20057;-36
2023/06/02 05:08:46;;;;;;;11.32;3.10;;;11.50;99.90;;;;;;5052153;28;20147;-34
2023/06/02 05:11:12;;;;;;;14.68;3.20;;;11.40;99.90;;;;;;5041536;28;20038;-35
2023/06/02 05:13:37;;;;;;;13.88;3.20;;;11.50;99.90;;;;;;5045041;28;20041;-33
2023/06/02 05:16:04;;;;;;;9.60;2.70;;;11.70;99.90;;;;;;5032983;28;20120;-34
2023/06/02 05:18:30;;;;;;;8.95;3.17;;;11.70;99.90;;;;;;5031788;28;20084;-34
2023/06/02 05:20:55;;;;;;;12.18;2.90;;;11.70;99.90;;;;;;5048749;28;20073;-32
2023/06/02 05:23:21;;;;;;;10.98;2.70;;;11.70;99.90;;;;;;5051678;28;20050;-34
2023/06/02 05:25:49;;;;;;;12.30;3.33;;;11.80;99.90;;;;;;5052465;28;20033;-35
2023/06/02 05:28:15;;;;;;;11.15;2.85;;;11.80;99.90;;;;;;5053035;28;20037;-32
2023/06/02 05:30:41;;;;;;;11.65;3.22;;;12.00;99.90;;;;;;5034624;28;20044;-35
2023/06/02 05:33:07;;;;;;;10.85;3.35;;;12.00;99.90;;;;;;5031961;28;20042;-35
2023/06/02 05:35:32;;;;;;;12.50;3.17;;;12.10;99.90;;;;;;5031856;28;20045;-35
2023/06/02 05:37:58;;;;;;;12.25;2.83;;;12.10;99.90;;;;;;5038983;28;20395;-34
2023/06/02 05:40:24;;;;;;;10.50;3.00;;;12.10;99.90;;;;;;5051569;28;20063;-35
2023/06/02 05:42:50;;;;;;;12.77;3.53;;;12.20;99.90;;;;;;5051704;28;20051;-35
2023/06/02 05:45:15;;;;;;;14.73;3.50;;;12.20;99.90;;;;;;5051567;28;20045;-33
2023/06/02 05:47:41;;;;;;;13.38;3.00;;;12.20;99.90;;;;;;5051408;28;20033;-34
2023/06/02 05:50:07;;;;;;;11.05;3.80;;;12.30;99.90;;;;;;5051215;28;20037;-37
2023/06/02 05:52:33;;;;;;;11.77;3.10;;;12.40;99.90;;;;;;5050820;28;20538;-38
2023/06/02 05:54:59;;;;;;;7.40;3.13;;;12.40;99.90;;;;;;5051181;28;20124;-35
2023/06/02 05:57:25;;;;;;;12.30;3.00;;;12.40;99.90;;;;;;5051133;28;20037;-37
2023/06/02 05:59:50;;;;;;;11.00;3.30;;;12.50;99.90;;;;;;5024046;28;20044;-34
2023/06/02 06:02:16;;;;;;;9.27;2.80;;;12.40;99.90;;;;;;5051168;28;20037;-33
2023/06/02 06:04:42;;;;;;;12.73;3.17;;;12.50;99.90;;;;;;5051176;28;20044;-35
2023/06/02 06:07:08;;;;;;;10.45;3.30;;;12.60;99.90;;;;;;5048527;28;20041;-35
2023/06/02 06:09:34;;;;;;;9.88;2.97;;;12.60;99.90;;;;;;5051027;28;20453;-35
2023/06/02 06:12:00;;;;;;;9.43;2.88;;;12.60;99.90;;;;;;5050997;28;20071;-34
2023/06/02 06:14:25;;;;;;;15.60;3.97;;;12.60;99.90;;;;;;5050614;28;20140;-34
2023/06/02 06:16:51;;;;;;;10.73;3.40;;;12.60;99.90;;;;;;5051013;28;20041;-34
2023/06/02 06:19:18;;;;;;;11.75;3.72;;;12.70;99.90;;;;;;5050462;28;20041;-35
2023/06/02 06:21:44;;;;;;;11.10;3.00;;;12.80;99.90;;;;;;5050739;28;20481;-38
2023/06/02 06:24:09;;;;;;;9.90;3.17;;;12.70;99.90;;;;;;5042075;28;20052;-34
2023/06/02 06:26:35;;;;;;;12.15;2.92;;;12.70;99.90;;;;;;5046812;28;20141;-34
2023/06/02 06:29:01;;;;;;;15.25;3.25;;;12.80;99.90;;;;;;5050446;28;20036;-33
2023/06/02 06:31:26;;;;;;;12.85;3.15;;;12.80;99.90;;;;;;5050673;28;20143;-37
2023/06/02 06:33:52;;;;;;;14.38;3.45;;;12.90;99.90;;;;;;5034023;28;20474;-35
2023/06/02 06:36:18;;;;;;;11.95;3.50;;;13.00;99.90;;;;;;5050441;28;20037;-34
2023/06/02 06:38:44;;;;;;;14.63;3.58;;;13.00;99.90;;;;;;5050270;28;20609;-35
2023/06/02 06:41:10;;;;;;;11.85;4.15;;;13.10;99.90;;;;;;5047258;28;20120;-32
2023/06/02 06:43:35;;;;;;;15.38;4.25;;;13.10;99.90;;;;;;5041111;28;20482;-34
2023/06/02 06:46:01;;;;;;;12.25;3.47;;;13.10;99.90;;;;;;5050474;28;20127;-33
2023/06/02 06:48:27;;;;;;;11.38;3.92;;;13.20;99.90;;;;;;5050471;28;20041;-35
2023/06/02 06:50:53;;;;;;;16.35;4.60;;;13.30;99.90;;;;;;5050199;28;20379;-36
2023/06/02 06:53:19;;;;;;;14.00;3.65;;;13.30;99.90;;;;;;5050463;28;20120;-36
2023/06/02 06:55:46;;;;;;;14.18;3.97;;;13.30;99.90;;;;;;5050411;28;20094;-37
2023/06/02 06:58:12;;;;;;;16.00;3.63;;;13.40;99.90;;;;;;5050061;28;20094;-37
2023/06/02 07:00:38;;;;;;;12.38;3.38;;;13.50;99.90;;;;;;5050007;28;20033;-35
2023/06/02 07:03:04;;;;;;;13.88;3.78;;;13.50;99.90;;;;;;5050199;28;20033;-35
2023/06/02 07:05:30;;;;;;;14.90;4.05;;;13.50;99.90;;;;;;5031289;28;20494;-32
2023/06/02 07:07:56;;;;;;;12.95;4.03;;;13.70;99.90;;;;;;5050085;28;20037;-33
2023/06/02 07:10:22;;;;;;;18.52;4.22;;;13.60;99.90;;;;;;5049818;28;20470;-32
2023/06/02 07:12:48;;;;;;;15.27;5.05;;;13.70;99.90;;;;;;5050086;28;20136;-38
2023/06/02 07:15:14;;;;;;;16.60;4.32;;;13.70;99.90;;;;;;5050051;28;20041;-34
2023/06/02 07:17:41;;;;;;;14.68;4.22;;;13.70;99.90;;;;;;5042368;28;20029;-35
2023/06/02 07:20:11;;;;;;;13.15;4.05;;;13.80;99.90;;;;;;5030125;28;20502;-35
2023/06/02 07:22:38;;;;;;;14.00;3.90;;;13.90;99.90;;;;;;5030127;28;20100;-35
2023/06/02 07:25:04;;;;;;;18.45;4.55;;;13.90;99.90;;;;;;5049936;28;20401;-34
2023/06/02 07:27:31;;;;;;;10.95;3.78;;;13.90;99.90;;;;;;5049788;28;20036;-36
2023/06/02 07:29:57;;;;;;;14.30;3.50;;;14.20;99.90;;;;;;5049574;28;20128;-34
2023/06/02 07:32:23;;;;;;;17.70;4.60;;;14.30;99.90;;;;;;5033030;28;20041;-36
2023/06/02 07:34:49;;;;;;;16.13;4.05;;;14.40;99.90;;;;;;5033204;28;20037;-35
2023/06/02 07:37:15;;;;;;;15.85;4.80;;;14.20;99.90;;;;;;5050991;28;20118;-34
2023/06/02 07:39:41;;;;;;;24.05;4.88;;;14.40;99.90;;;;;;5048335;28;20036;-34
2023/06/02 07:42:07;;;;;;;13.38;4.82;;;14.50;99.90;;;;;;5030202;28;20445;-34
2023/06/02 07:44:33;;;;;;;15.25;4.35;;;14.60;99.90;;;;;;5043824;28;20468;-32
2023/06/02 07:46:59;;;;;;;15.85;5.30;;;14.50;99.90;;;;;;5029777;28;20037;-38
2023/06/02 07:49:25;;;;;;;15.43;4.65;;;14.60;99.90;;;;;;5029982;28;20379;-35
2023/06/02 07:51:51;;;;;;;17.95;5.18;;;14.60;99.90;;;;;;5029902;28;20497;-35
2023/06/02 07:54:17;;;;;;;15.18;5.05;;;14.70;99.90;;;;;;5026501;28;20049;-34
2023/06/02 07:56:43;;;;;;;14.93;4.38;;;14.80;99.90;;;;;;5027420;28;20091;-34
2023/06/02 07:59:12;;;;;;;18.73;5.43;;;14.80;99.90;;;;;;5025864;28;20257;-33
2023/06/02 08:01:40;;;;;;;18.83;4.70;;;14.80;99.90;;;;;;5026569;28;20060;-33
2023/06/02 08:04:06;;;;;;;16.73;4.53;;;14.90;99.90;;;;;;5027024;28;20053;-35
2023/06/02 08:06:32;;;;;;;15.25;4.85;;;15.10;99.90;;;;;;5032575;28;20153;-35
2023/06/02 08:08:58;;;;;;;16.48;5.00;;;15.10;99.90;;;;;;5048615;28;20080;-32
2023/06/02 08:11:24;;;;;;;14.50;4.82;;;15.20;99.90;;;;;;5048730;28;20056;-33
2023/06/02 08:13:50;;;;;;;14.93;4.80;;;15.20;99.90;;;;;;5049155;28;20037;-36
2023/06/02 08:16:16;;;;;;;14.70;5.30;;;15.50;99.90;;;;;;5051840;28;20048;-35
2023/06/02 08:18:42;;;;;;;15.43;4.93;;;15.40;99.90;;;;;;5051002;28;20401;-36
2023/06/02 08:21:08;;;;;;;14.88;5.53;;;15.50;99.90;;;;;;5040781;28;20449;-36
2023/06/02 08:23:33;;;;;;;19.38;5.35;;;15.60;99.90;;;;;;5053003;28;20040;-37
2023/06/02 08:26:00;;;;;;;14.85;5.25;;;16.10;99.90;;;;;;5052610;28;20045;-34
2023/06/02 08:28:29;;;;;;;15.05;5.07;;;16.40;99.90;;;;;;5053094;28;20041;-35
2023/06/02 08:30:58;;;;;;;17.95;5.22;;;16.60;99.90;;;;;;5033723;28;20509;-32
2023/06/02 08:33:24;;;;;;;17.10;5.60;;;17.00;99.90;;;;;;5032832;28;20033;-35
2023/06/02 08:35:51;;;;;;;13.65;4.93;;;17.30;99.90;;;;;;5032687;28;20041;-36
2023/06/02 08:38:20;;;;;;;18.63;5.35;;;17.50;99.90;;;;;;5032410;28;20075;-36
2023/06/02 08:40:47;;;;;;;16.55;5.75;;;17.70;99.90;;;;;;5048962;28;20045;-35
2023/06/02 08:43:14;;;;;;;14.82;5.20;;;18.00;99.90;;;;;;5052419;28;20044;-35
2023/06/02 08:45:44;;;;;;;15.88;4.88;;;18.00;99.90;;;;;;5052730;28;20041;-36
2023/06/02 08:48:15;;;;;;;18.55;5.50;;;18.90;99.90;;;;;;5052461;28;20032;-37
2023/06/02 08:50:43;;;;;;;16.00;4.85;;;19.10;99.90;;;;;;5052906;28;20037;-33
2023/06/02 08:53:13;;;;;;;14.55;5.53;;;19.30;99.90;;;;;;5052527;28;20036;-34
2023/06/02 08:55:41;;;;;;;15.68;4.93;;;19.50;99.90;;;;;;5052655;28;20516;-37
2023/06/02 08:58:10;;;;;;;15.82;5.57;;;19.60;99.90;;;;;;5052170;28;20049;-34
2023/06/02 09:00:41;;;;;;;16.48;4.95;;;19.70;99.90;;;;;;5052261;28;20041;-35
2023/06/02 09:03:07;;;;;;;16.90;5.18;;;19.90;99.90;;;;;;5052173;28;20120;-35
2023/06/02 09:05:33;;;;;;;18.75;5.13;;;20.10;99.90;;;;;;5051850;28;20136;-34
2023/06/02 09:08:11;;;;;;;10.90;4.60;;;20.50;99.90;;;;;;5035870;28;20049;-35
2023/06/02 09:10:40;;;;;;;13.15;4.70;;;20.70;99.90;;;;;;5032397;28;20381;-35
2023/06/02 09:13:07;;;;;;;12.27;4.70;;;20.80;99.90;;;;;;5015844;28;20041;-35
2023/06/02 09:15:35;;;;;;;15.57;5.15;;;21.00;99.90;;;;;;5050443;28;20048;-39
2023/06/02 09:18:12;;;;;;;16.45;4.65;;;21.20;99.90;;;;;;5052328;28;20047;-35
2023/06/02 09:20:39;;;;;;;14.25;5.20;;;21.20;99.90;;;;;;5052171;28;20458;-35
2023/06/02 09:23:06;;;;;;;11.63;4.40;;;21.20;99.90;;;;;;5052181;28;20068;-35
2023/06/02 09:25:35;;;;;;;13.73;5.00;;;21.40;99.90;;;;;;5035323;28;20045;-35
2023/06/02 09:28:01;;;;;;;14.82;4.97;;;21.60;99.90;;;;;;5031143;28;20037;-37
2023/06/02 09:30:28;;;;;;;12.82;3.97;;;21.60;99.90;;;;;;5032526;28;20041;-36
2023/06/02 09:32:56;;;;;;;11.90;4.40;;;21.50;99.90;;;;;;5051587;28;20522;-40
2023/06/02 09:35:54;;;;;;;14.95;4.95;;;21.70;99.90;;;;;;5043666;28;20156;-34
2023/06/02 09:38:20;;;;;;;12.82;4.40;;;22.00;99.90;;;;;;4992961;28;20076;-33
2023/06/02 09:40:46;;;;;;;13.93;4.18;;;22.40;99.90;;;;;;5051687;28;20052;-36
2023/06/02 09:43:13;;;;;;;14.32;4.45;;;22.60;99.90;;;;;;5051531;28;20633;-35
2023/06/02 09:45:48;;;;;;;12.43;4.07;;;22.60;99.60;;;;;;5051126;28;20044;-38
2023/06/02 09:48:24;;;;;;;10.48;3.83;;;22.70;96.40;;;;;;5067987;28;20124;-37
2023/06/02 09:50:50;;;;;;;9.55;3.38;;;23.00;97.70;;;;;;5050141;28;20115;-36
2023/06/02 09:53:19;;;;;;;8.73;3.42;;;23.00;96.30;;;;;;5032915;28;20474;-38
2023/06/02 09:55:48;;;;;;;8.23;3.00;;;23.50;94.50;;;;;;5047457;28;20076;-37
2023/06/02 09:58:15;;;;;;;7.78;2.85;;;23.30;91.50;;;;;;5042475;28;20037;-36
2023/06/02 10:00:41;;;;;;;6.20;2.75;;;23.80;90.30;;;;;;5029497;28;20048;-36
2023/06/02 10:03:07;;;;;;;5.70;2.65;;;23.70;87.20;;;;;;5047636;28;20041;-35
2023/06/02 10:05:33;;;;;;;7.07;2.40;;;23.60;86.40;;;;;;5049854;28;20398;-35
2023/06/02 10:08:11;;;;;;;7.57;2.58;;;23.60;85.70;;;;;;5038788;28;20041;-38
2023/06/02 10:11:08;;;;;;;6.30;2.80;;;23.80;78.30;;;;;;5036398;28;20090;-34
2023/06/02 10:13:49;;;;;;;7.97;2.25;;;23.70;81.30;;;;;;5049207;28;20064;-35
2023/06/02 10:16:23;;;;;;;5.65;2.67;;;23.50;80.80;;;;;;5030718;28;20037;-38
2023/06/02 10:18:52;;;;;;;4.38;2.45;;;23.30;77.90;;;;;;5044618;28;20044;-34
2023/06/02 10:21:51;;;;;;;9.75;3.22;;;23.00;79.00;;;;;;5030674;28;20072;-36
2023/06/02 10:24:20;;;;;;;5.93;2.33;;;23.20;75.70;;;;;;5031033;28;20045;-34
2023/06/02 10:27:11;;;;;;;10.25;2.88;;;23.40;76.10;;;;;;5047073;28;20132;-36
2023/06/02 10:29:38;;;;;;;6.22;2.97;;;23.70;77.50;;;;;;5055640;28;20078;-39
2023/06/02 10:32:44;;;;;;;7.50;2.75;;;23.80;77.50;;;;;;5050157;28;20048;-35
2023/06/02 10:35:10;;;;;;;6.90;2.45;;;23.90;69.50;;;;;;4974055;28;20042;-36
2023/06/02 10:37:37;;;;;;;6.85;2.17;;;24.10;74.60;;;;;;5036503;28;20055;-36
2023/06/02 10:40:04;;;;;;;5.97;2.65;;;24.10;73.70;;;;;;5049211;28;20044;-36
2023/06/02 10:42:31;;;;;;;5.32;2.30;;;24.00;74.00;;;;;;5050617;28;20049;-35
2023/06/02 10:45:21;;;;;;;5.35;1.98;;;23.50;73.60;;;;;;5035415;28;20037;-36
2023/06/02 10:47:47;;;;;;;6.95;2.35;;;23.10;72.30;;;;;;5031846;28;20045;-39
2023/06/02 10:50:14;;;;;;;7.28;2.33;;;22.70;73.20;;;;;;5030259;28;20553;-39
2023/06/02 10:53:02;;;;;;;6.75;1.88;;;22.20;72.80;;;;;;5030495;28;20519;-35
2023/06/02 10:55:30;;;;;;;8.35;2.20;;;22.40;73.80;;;;;;5046656;28;20045;-35
2023/06/02 10:58:04;;;;;;;8.82;2.45;;;22.80;73.00;;;;;;5050023;28;20068;-37
2023/06/02 11:00:36;;;;;;;5.72;2.33;;;22.80;71.30;;;;;;5049846;28;20502;-33
2023/06/02 11:03:17;;;;;;;5.97;2.28;;;22.80;71.20;;;;;;5033557;28;20067;-37
2023/06/02 11:05:45;;;;;;;7.68;2.58;;;22.60;70.60;;;;;;5050060;28;20159;-36
2023/06/02 11:08:21;;;;;;;5.10;2.35;;;22.40;70.50;;;;;;5033525;28;20053;-36
2023/06/02 11:10:58;;;;;;;4.40;1.60;;;22.30;70.90;;;;;;5033628;28;20481;-36
2023/06/02 11:13:28;;;;;;;8.32;2.22;;;22.20;71.60;;;;;;5049429;28;20041;-36
2023/06/02 11:15:54;;;;;;;6.25;1.90;;;22.00;71.10;;;;;;5049656;28;20595;-36
2023/06/02 11:18:25;;;;;;;7.07;2.30;;;21.90;71.60;;;;;;5042928;28;20095;-35
2023/06/02 11:20:53;;;;;;;5.43;2.00;;;21.80;72.10;;;;;;5035792;28;20431;-35
2023/06/02 11:23:20;;;;;;;4.43;2.28;;;21.40;72.40;;;;;;5049571;28;20081;-34
2023/06/02 11:25:47;;;;;;;5.43;2.00;;;21.50;72.70;;;;;;5049676;28;20048;-35
2023/06/02 11:28:22;;;;;;;4.07;1.70;;;22.30;72.40;;;;;;5047876;28;20286;-35
2023/06/02 11:31:08;;;;;;;4.30;1.60;;;23.00;71.00;;;;;;5042933;28;20040;-34
2023/06/02 11:33:39;;;;;;;2.83;1.65;;;23.80;68.70;;;;;;5065309;28;20077;-36
2023/06/02 11:36:13;;;;;;;3.72;1.75;;;23.90;69.00;;;;;;5049142;28;20443;-37
2023/06/02 11:38:40;;;;;;;6.20;1.75;;;23.80;65.30;;;;;;5049074;28;20367;-36
2023/06/02 11:41:17;;;;;;;2.60;1.70;;;23.60;67.40;;;;;;5048839;28;20068;-36
2023/06/02 11:43:48;;;;;;;4.13;1.50;;;23.10;64.60;;;;;;5050738;28;20120;-37
2023/06/02 11:46:19;;;;;;;4.35;1.70;;;22.80;66.40;;;;;;5045223;28;20079;-36
2023/06/02 11:48:46;;;;;;;2.88;1.70;;;22.60;67.20;;;;;;5042582;28;20397;-39
2023/06/02 11:51:15;;;;;;;4.75;1.80;;;23.00;68.30;;;;;;5035432;28;20037;-36
2023/06/02 11:53:45;;;;;;;6.30;1.60;;;23.60;67.60;;;;;;5034874;28;20029;-35
2023/06/02 11:56:12;;;;;;;2.72;1.30;;;24.00;66.10;;;;;;5037619;28;20060;-36
2023/06/02 11:58:48;;;;;;;4.70;1.73;;;24.10;64.50;;;;;;5054792;28;20464;-36
2023/06/02 12:01:21;;;;;;;3.50;1.52;;;24.10;63.70;;;;;;5053903;28;20178;-36
2023/06/02 12:04:03;;;;;;;4.75;1.45;;;24.50;63.70;;;;;;5044888;28;20483;-35
2023/06/02 12:06:34;;;;;;;4.13;1.47;;;24.20;60.70;;;;;;5036086;28;20049;-35
2023/06/02 12:09:13;;;;;;;2.80;1.50;;;23.90;60.40;;;;;;5034547;28;20466;-38
2023/06/02 12:11:39;;;;;;;2.80;1.58;;;23.50;61.00;;;;;;5048796;28;20094;-36
2023/06/02 12:14:09;;;;;;;4.63;1.30;;;23.20;61.80;;;;;;5054146;28;20074;-35
2023/06/02 12:16:40;;;;;;;4.95;1.58;;;23.00;62.20;;;;;;5054319;28;20052;-35
2023/06/02 12:19:19;;;;;;;3.42;1.50;;;23.60;63.10;;;;;;5037149;28;20363;-36
2023/06/02 12:21:46;;;;;;;3.47;1.40;;;24.50;64.30;;;;;;5070514;28;20041;-37
2023/06/02 12:24:33;;;;;;;3.03;1.60;;;25.40;61.50;;;;;;5046798;28;20126;-36
2023/06/02 12:27:00;;;;;;;5.05;1.52;;;26.20;57.10;;;;;;5045728;28;20041;-39
2023/06/02 12:29:26;;;;;;;5.53;2.00;;;25.80;58.50;;;;;;5051732;28;20076;-36
2023/06/02 12:31:59;;;;;;;4.35;1.73;;;25.40;57.80;;;;;;5053101;28;20064;-37
2023/06/02 12:34:25;;;;;;;2.80;1.40;;;24.90;57.80;;;;;;5036046;28;20040;-38
2023/06/02 12:36:53;;;;;;;3.13;1.50;;;24.70;58.40;;;;;;5047960;28;20055;-39
2023/06/02 12:39:19;;;;;;;2.83;1.50;;;25.00;59.10;;;;;;5032887;28;20125;-38
2023/06/02 12:41:45;;;;;;;3.10;1.45;;;24.90;57.70;;;;;;5032781;28;20103;-38
2023/06/02 12:44:11;;;;;;;3.80;1.83;;;24.70;57.10;;;;;;5035772;28;20037;-36
2023/06/02 12:46:37;;;;;;;3.08;1.48;;;25.00;57.80;;;;;;5052743;28;20068;-36